sensor_id;sensor_type;location;lat;lon;timestamp;temperature;humidity
56753;DHT22;42627;42.646;23.642;2022-07-29T00:02:01;19.10;99.90
56753;DHT22;42627;42.646;23.642;2022-07-29T00:04:02;19.20;99.90
56753;DHT22;42627;42.646;23.642;2022-07-29T00:06:03;19.10;99.90
56753;DHT22;42627;42.646;23.642;2022-07-29T00:08:03;19.20;99.90
56753;DHT22;42627;42.646;23.642;2022-07-29T00:10:04;19.30;99.90
56753;DHT22;42627;42.646;23.642;2022-07-29T00:12:05;19.30;99.90
56753;DHT22;42627;42.646;23.642;2022-07-29T00:14:06;19.40;99.90
56753;DHT22;42627;42.646;23.642;2022-07-29T00:16:16;19.40;99.90
56753;DHT22;42627;42.646;23.642;2022-07-29T00:18:16;19.40;99.90
56753;DHT22;42627;42.646;23.642;2022-07-29T00:20:17;19.40;99.90
56753;DHT22;42627;42.646;23.642;2022-07-29T00:22:19;19.40;99.90
56753;DHT22;42627;42.646;23.642;2022-07-29T00:24:20;19.50;99.90
56753;DHT22;42627;42.646;23.642;2022-07-29T00:26:25;19.50;99.90
56753;DHT22;42627;42.646;23.642;2022-07-29T00:28:46;19.50;99.90
56753;DHT22;42627;42.646;23.642;2022-07-29T00:31:08;19.50;99.90
56753;DHT22;42627;42.646;23.642;2022-07-29T00:33:09;19.60;99.90
56753;DHT22;42627;42.646;23.642;2022-07-29T00:35:10;19.50;99.90
56753;DHT22;42627;42.646;23.642;2022-07-29T00:37:29;19.50;99.90
56753;DHT22;42627;42.646;23.642;2022-07-29T00:39:30;19.60;99.90
56753;DHT22;42627;42.646;23.642;2022-07-29T00:41:30;19.60;99.90
56753;DHT22;42627;42.646;23.642;2022-07-29T00:43:31;19.50;99.90
56753;DHT22;42627;42.646;23.642;2022-07-29T00:45:50;19.50;99.90
56753;DHT22;42627;42.646;23.642;2022-07-29T00:47:51;19.50;99.90
56753;DHT22;42627;42.646;23.642;2022-07-29T00:49:51;19.30;99.90
56753;DHT22;42627;42.646;23.642;2022-07-29T00:51:52;19.20;99.90
56753;DHT22;42627;42.646;23.642;2022-07-29T00:53:53;19.20;99.90
56753;DHT22;42627;42.646;23.642;2022-07-29T00:56:09;19.20;99.90
56753;DHT22;42627;42.646;23.642;2022-07-29T01:01:09;19.30;99.90
56753;DHT22;42627;42.646;23.642;2022-07-29T01:03:10;19.30;99.90
56753;DHT22;42627;42.646;23.642;2022-07-29T01:05:11;19.20;99.90
56753;DHT22;42627;42.646;23.642;2022-07-29T01:07:13;19.20;99.90
56753;DHT22;42627;42.646;23.642;2022-07-29T01:09:14;19.10;99.90
56753;DHT22;42627;42.646;23.642;2022-07-29T01:11:16;19.20;99.90
56753;DHT22;42627;42.646;23.642;2022-07-29T01:13:17;19.10;99.90
56753;DHT22;42627;42.646;23.642;2022-07-29T01:15:41;19.10;99.90
56753;DHT22;42627;42.646;23.642;2022-07-29T01:21:57;19.00;99.90
56753;DHT22;42627;42.646;23.642;2022-07-29T01:29:36;18.80;99.90
56753;DHT22;42627;42.646;23.642;2022-07-29T01:33:58;18.70;99.90
56753;DHT22;42627;42.646;23.642;2022-07-29T01:36:09;18.70;99.90
56753;DHT22;42627;42.646;23.642;2022-07-29T01:38:15;18.80;99.90
56753;DHT22;42627;42.646;23.642;2022-07-29T01:40:29;18.80;99.90
56753;DHT22;42627;42.646;23.642;2022-07-29T01:42:44;18.80;99.90
56753;DHT22;42627;42.646;23.642;2022-07-29T01:45:15;18.90;99.90
56753;DHT22;42627;42.646;23.642;2022-07-29T01:47:20;18.90;99.90
56753;DHT22;42627;42.646;23.642;2022-07-29T01:49:28;18.90;99.90
56753;DHT22;42627;42.646;23.642;2022-07-29T01:51:33;18.80;99.90
56753;DHT22;42627;42.646;23.642;2022-07-29T01:53:55;18.80;99.90
56753;DHT22;42627;42.646;23.642;2022-07-29T01:56:21;18.80;99.90
56753;DHT22;42627;42.646;23.642;2022-07-29T01:58:40;18.70;99.90
56753;DHT22;42627;42.646;23.642;2022-07-29T02:01:04;18.50;99.90
56753;DHT22;42627;42.646;23.642;2022-07-29T02:03:09;18.60;99.90
56753;DHT22;42627;42.646;23.642;2022-07-29T02:05:15;18.60;99.90
56753;DHT22;42627;42.646;23.642;2022-07-29T02:07:19;18.70;99.90
56753;DHT22;42627;42.646;23.642;2022-07-29T02:09:21;18.70;99.90
56753;DHT22;42627;42.646;23.642;2022-07-29T02:11:22;18.70;99.90
56753;DHT22;42627;42.646;23.642;2022-07-29T02:13:23;18.80;99.90
56753;DHT22;42627;42.646;23.642;2022-07-29T02:15:46;18.70;99.90
56753;DHT22;42627;42.646;23.642;2022-07-29T02:17:51;18.70;99.90
56753;DHT22;42627;42.646;23.642;2022-07-29T02:19:57;18.80;99.90
56753;DHT22;42627;42.646;23.642;2022-07-29T02:22:00;18.80;99.90
56753;DHT22;42627;42.646;23.642;2022-07-29T02:24:02;18.90;99.90
56753;DHT22;42627;42.646;23.642;2022-07-29T02:29:23;18.90;99.90
56753;DHT22;42627;42.646;23.642;2022-07-29T02:31:27;18.90;99.90
56753;DHT22;42627;42.646;23.642;2022-07-29T02:33:30;18.90;99.90
56753;DHT22;42627;42.646;23.642;2022-07-29T02:35:31;18.90;99.90
56753;DHT22;42627;42.646;23.642;2022-07-29T02:37:33;18.90;99.90
56753;DHT22;42627;42.646;23.642;2022-07-29T02:39:34;18.90;99.90
56753;DHT22;42627;42.646;23.642;2022-07-29T02:41:49;18.90;99.90
56753;DHT22;42627;42.646;23.642;2022-07-29T02:43:54;18.90;99.90
56753;DHT22;42627;42.646;23.642;2022-07-29T02:45:56;18.90;99.90
56753;DHT22;42627;42.646;23.642;2022-07-29T02:48:00;18.80;99.90
56753;DHT22;42627;42.646;23.642;2022-07-29T02:50:35;18.80;99.90
56753;DHT22;42627;42.646;23.642;2022-07-29T02:52:47;18.80;99.90
56753;DHT22;42627;42.646;23.642;2022-07-29T03:00:47;18.80;99.90
56753;DHT22;42627;42.646;23.642;2022-07-29T03:02:53;18.70;99.90
56753;DHT22;42627;42.646;23.642;2022-07-29T03:04:55;18.70;99.90
56753;DHT22;42627;42.646;23.642;2022-07-29T03:06:59;18.70;99.90
56753;DHT22;42627;42.646;23.642;2022-07-29T03:09:00;18.70;99.90
56753;DHT22;42627;42.646;23.642;2022-07-29T03:11:02;18.70;99.90
56753;DHT22;42627;42.646;23.642;2022-07-29T03:13:04;18.60;99.90
56753;DHT22;42627;42.646;23.642;2022-07-29T03:15:07;18.60;99.90
56753;DHT22;42627;42.646;23.642;2022-07-29T03:17:09;18.50;99.90
56753;DHT22;42627;42.646;23.642;2022-07-29T03:19:10;18.50;99.90
56753;DHT22;42627;42.646;23.642;2022-07-29T03:21:11;18.60;99.90
56753;DHT22;42627;42.646;23.642;2022-07-29T03:23:12;18.60;99.90
56753;DHT22;42627;42.646;23.642;2022-07-29T03:25:30;18.50;99.90
56753;DHT22;42627;42.646;23.642;2022-07-29T03:27:44;18.50;99.90
56753;DHT22;42627;42.646;23.642;2022-07-29T03:29:59;18.50;99.90
56753;DHT22;42627;42.646;23.642;2022-07-29T03:32:02;18.50;99.90
56753;DHT22;42627;42.646;23.642;2022-07-29T03:34:03;18.40;99.90
56753;DHT22;42627;42.646;23.642;2022-07-29T03:36:04;18.40;99.90
56753;DHT22;42627;42.646;23.642;2022-07-29T03:38:04;18.40;99.90
56753;DHT22;42627;42.646;23.642;2022-07-29T03:40:07;18.30;99.90
56753;DHT22;42627;42.646;23.642;2022-07-29T03:42:12;18.30;99.90
56753;DHT22;42627;42.646;23.642;2022-07-29T03:46:26;18.20;99.90
56753;DHT22;42627;42.646;23.642;2022-07-29T03:48:31;18.20;99.90
56753;DHT22;42627;42.646;23.642;2022-07-29T03:50:33;18.20;99.90
56753;DHT22;42627;42.646;23.642;2022-07-29T03:52:35;18.20;99.90
56753;DHT22;42627;42.646;23.642;2022-07-29T03:54:36;18.20;99.90
56753;DHT22;42627;42.646;23.642;2022-07-29T03:56:42;18.20;99.90
56753;DHT22;42627;42.646;23.642;2022-07-29T03:59:05;18.10;99.90
56753;DHT22;42627;42.646;23.642;2022-07-29T04:01:24;18.10;99.90
56753;DHT22;42627;42.646;23.642;2022-07-29T04:03:46;18.00;99.90
56753;DHT22;42627;42.646;23.642;2022-07-29T04:06:02;18.00;99.90
56753;DHT22;42627;42.646;23.642;2022-07-29T04:08:04;18.00;99.90
56753;DHT22;42627;42.646;23.642;2022-07-29T04:10:05;18.10;99.90
56753;DHT22;42627;42.646;23.642;2022-07-29T04:12:06;18.10;99.90
56753;DHT22;42627;42.646;23.642;2022-07-29T04:14:07;18.00;99.90
56753;DHT22;42627;42.646;23.642;2022-07-29T04:16:08;18.00;99.90
56753;DHT22;42627;42.646;23.642;2022-07-29T04:18:31;18.00;99.90
56753;DHT22;42627;42.646;23.642;2022-07-29T04:20:34;18.10;99.90
56753;DHT22;42627;42.646;23.642;2022-07-29T04:22:35;18.20;99.90
56753;DHT22;42627;42.646;23.642;2022-07-29T04:24:36;18.10;99.90
56753;DHT22;42627;42.646;23.642;2022-07-29T04:26:36;18.10;99.90
56753;DHT22;42627;42.646;23.642;2022-07-29T04:29:11;18.20;99.90
56753;DHT22;42627;42.646;23.642;2022-07-29T04:34:30;18.50;99.90
56753;DHT22;42627;42.646;23.642;2022-07-29T04:36:31;18.70;99.90
56753;DHT22;42627;42.646;23.642;2022-07-29T04:38:32;18.80;99.90
56753;DHT22;42627;42.646;23.642;2022-07-29T04:40:33;18.90;99.90
56753;DHT22;42627;42.646;23.642;2022-07-29T04:42:34;18.90;99.90
56753;DHT22;42627;42.646;23.642;2022-07-29T04:44:35;19.00;99.90
56753;DHT22;42627;42.646;23.642;2022-07-29T04:46:35;19.10;99.90
56753;DHT22;42627;42.646;23.642;2022-07-29T04:48:54;19.10;99.90
56753;DHT22;42627;42.646;23.642;2022-07-29T04:50:55;19.20;99.90
56753;DHT22;42627;42.646;23.642;2022-07-29T04:52:56;19.30;99.90
56753;DHT22;42627;42.646;23.642;2022-07-29T04:54:57;19.40;99.90
56753;DHT22;42627;42.646;23.642;2022-07-29T04:56:58;19.40;99.90
56753;DHT22;42627;42.646;23.642;2022-07-29T04:59:29;19.40;99.90
56753;DHT22;42627;42.646;23.642;2022-07-29T05:04:20;19.40;99.90
56753;DHT22;42627;42.646;23.642;2022-07-29T05:06:20;19.40;99.90
56753;DHT22;42627;42.646;23.642;2022-07-29T05:08:22;19.30;99.90
56753;DHT22;42627;42.646;23.642;2022-07-29T05:10:22;19.40;99.90
56753;DHT22;42627;42.646;23.642;2022-07-29T05:12:24;19.40;99.90
56753;DHT22;42627;42.646;23.642;2022-07-29T05:14:25;19.40;99.90
56753;DHT22;42627;42.646;23.642;2022-07-29T05:16:25;19.50;99.90
56753;DHT22;42627;42.646;23.642;2022-07-29T05:18:31;19.50;99.90
56753;DHT22;42627;42.646;23.642;2022-07-29T05:20:32;19.60;99.90
56753;DHT22;42627;42.646;23.642;2022-07-29T05:22:34;19.70;99.90
56753;DHT22;42627;42.646;23.642;2022-07-29T05:24:35;19.80;99.90
56753;DHT22;42627;42.646;23.642;2022-07-29T05:26:36;19.90;99.90
56753;DHT22;42627;42.646;23.642;2022-07-29T05:28:55;20.00;99.90
56753;DHT22;42627;42.646;23.642;2022-07-29T05:31:14;20.20;99.90
56753;DHT22;42627;42.646;23.642;2022-07-29T05:33:41;20.30;99.90
56753;DHT22;42627;42.646;23.642;2022-07-29T05:35:45;20.30;99.90
56753;DHT22;42627;42.646;23.642;2022-07-29T05:37:45;20.30;99.90
56753;DHT22;42627;42.646;23.642;2022-07-29T05:39:46;20.40;99.90
56753;DHT22;42627;42.646;23.642;2022-07-29T05:41:47;20.50;99.90
56753;DHT22;42627;42.646;23.642;2022-07-29T05:43:48;20.50;99.90
56753;DHT22;42627;42.646;23.642;2022-07-29T05:45:48;20.60;99.90
56753;DHT22;42627;42.646;23.642;2022-07-29T05:49:59;20.80;99.90
56753;DHT22;42627;42.646;23.642;2022-07-29T05:52:00;20.90;99.90
56753;DHT22;42627;42.646;23.642;2022-07-29T05:54:01;21.10;99.90
56753;DHT22;42627;42.646;23.642;2022-07-29T05:56:05;21.10;98.30
56753;DHT22;42627;42.646;23.642;2022-07-29T05:58:06;21.20;96.60
56753;DHT22;42627;42.646;23.642;2022-07-29T06:00:07;21.20;96.30
56753;DHT22;42627;42.646;23.642;2022-07-29T06:02:08;21.30;94.80
56753;DHT22;42627;42.646;23.642;2022-07-29T06:07:16;21.50;96.60
56753;DHT22;42627;42.646;23.642;2022-07-29T06:09:17;21.60;97.70
56753;DHT22;42627;42.646;23.642;2022-07-29T06:11:17;21.70;97.50
56753;DHT22;42627;42.646;23.642;2022-07-29T06:13:18;21.70;97.30
56753;DHT22;42627;42.646;23.642;2022-07-29T06:15:19;21.80;96.20
56753;DHT22;42627;42.646;23.642;2022-07-29T06:17:19;21.90;97.60
56753;DHT22;42627;42.646;23.642;2022-07-29T06:19:20;21.90;98.20
56753;DHT22;42627;42.646;23.642;2022-07-29T06:21:21;22.00;97.80
56753;DHT22;42627;42.646;23.642;2022-07-29T06:23:22;22.00;95.80
56753;DHT22;42627;42.646;23.642;2022-07-29T06:25:22;22.10;96.60
56753;DHT22;42627;42.646;23.642;2022-07-29T06:27:23;22.20;94.40
56753;DHT22;42627;42.646;23.642;2022-07-29T06:29:23;22.30;92.80
56753;DHT22;42627;42.646;23.642;2022-07-29T06:31:24;22.40;92.50
56753;DHT22;42627;42.646;23.642;2022-07-29T06:33:25;22.50;91.40
56753;DHT22;42627;42.646;23.642;2022-07-29T06:35:25;22.50;91.50
56753;DHT22;42627;42.646;23.642;2022-07-29T06:37:26;22.60;92.50
56753;DHT22;42627;42.646;23.642;2022-07-29T06:39:27;22.70;90.90
56753;DHT22;42627;42.646;23.642;2022-07-29T06:41:28;22.70;89.00
56753;DHT22;42627;42.646;23.642;2022-07-29T06:43:33;22.70;88.80
56753;DHT22;42627;42.646;23.642;2022-07-29T06:45:34;22.70;89.90
56753;DHT22;42627;42.646;23.642;2022-07-29T06:47:35;22.80;90.40
56753;DHT22;42627;42.646;23.642;2022-07-29T06:49:35;22.90;90.50
56753;DHT22;42627;42.646;23.642;2022-07-29T06:51:36;23.00;90.30
56753;DHT22;42627;42.646;23.642;2022-07-29T06:53:37;23.10;90.50
56753;DHT22;42627;42.646;23.642;2022-07-29T06:55:38;23.10;89.30
56753;DHT22;42627;42.646;23.642;2022-07-29T06:57:39;23.20;87.20
56753;DHT22;42627;42.646;23.642;2022-07-29T06:59:39;23.40;86.20
56753;DHT22;42627;42.646;23.642;2022-07-29T07:01:42;23.40;84.40
56753;DHT22;42627;42.646;23.642;2022-07-29T07:03:42;23.50;84.00
56753;DHT22;42627;42.646;23.642;2022-07-29T07:05:43;23.60;83.30
56753;DHT22;42627;42.646;23.642;2022-07-29T07:07:47;23.70;83.40
56753;DHT22;42627;42.646;23.642;2022-07-29T07:09:52;23.80;82.80
56753;DHT22;42627;42.646;23.642;2022-07-29T07:12:14;23.90;78.20
56753;DHT22;42627;42.646;23.642;2022-07-29T07:14:15;23.90;79.90
56753;DHT22;42627;42.646;23.642;2022-07-29T07:16:16;24.00;80.90
56753;DHT22;42627;42.646;23.642;2022-07-29T07:18:17;24.00;80.80
56753;DHT22;42627;42.646;23.642;2022-07-29T07:20:19;24.10;78.70
56753;DHT22;42627;42.646;23.642;2022-07-29T07:22:19;24.20;81.10
56753;DHT22;42627;42.646;23.642;2022-07-29T07:24:20;24.30;78.00
56753;DHT22;42627;42.646;23.642;2022-07-29T07:26:21;24.30;77.60
56753;DHT22;42627;42.646;23.642;2022-07-29T07:28:34;24.40;77.70
56753;DHT22;42627;42.646;23.642;2022-07-29T07:30:35;24.40;79.60
56753;DHT22;42627;42.646;23.642;2022-07-29T07:32:36;24.50;76.20
56753;DHT22;42627;42.646;23.642;2022-07-29T07:34:36;24.60;76.90
56753;DHT22;42627;42.646;23.642;2022-07-29T07:36:38;24.60;76.60
56753;DHT22;42627;42.646;23.642;2022-07-29T07:39:01;24.70;72.00
56753;DHT22;42627;42.646;23.642;2022-07-29T07:41:21;24.80;74.80
56753;DHT22;42627;42.646;23.642;2022-07-29T07:43:21;24.90;71.70
56753;DHT22;42627;42.646;23.642;2022-07-29T07:45:23;24.90;72.40
56753;DHT22;42627;42.646;23.642;2022-07-29T07:47:24;25.00;70.60
56753;DHT22;42627;42.646;23.642;2022-07-29T07:49:25;25.10;69.00
56753;DHT22;42627;42.646;23.642;2022-07-29T07:51:25;25.20;70.50
56753;DHT22;42627;42.646;23.642;2022-07-29T07:53:26;25.30;68.50
56753;DHT22;42627;42.646;23.642;2022-07-29T07:55:27;25.30;67.60
56753;DHT22;42627;42.646;23.642;2022-07-29T07:57:28;25.40;68.20
56753;DHT22;42627;42.646;23.642;2022-07-29T07:59:28;25.50;68.20
56753;DHT22;42627;42.646;23.642;2022-07-29T08:01:29;25.50;65.40
56753;DHT22;42627;42.646;23.642;2022-07-29T08:03:30;25.60;68.20
56753;DHT22;42627;42.646;23.642;2022-07-29T08:05:30;25.70;67.70
56753;DHT22;42627;42.646;23.642;2022-07-29T08:07:31;25.70;66.70
56753;DHT22;42627;42.646;23.642;2022-07-29T08:09:32;25.70;66.20
56753;DHT22;42627;42.646;23.642;2022-07-29T08:11:33;25.80;67.70
56753;DHT22;42627;42.646;23.642;2022-07-29T08:13:37;25.90;65.60
56753;DHT22;42627;42.646;23.642;2022-07-29T08:15:40;26.00;64.60
56753;DHT22;42627;42.646;23.642;2022-07-29T08:17:57;26.10;64.50
56753;DHT22;42627;42.646;23.642;2022-07-29T08:19:57;26.20;64.50
56753;DHT22;42627;42.646;23.642;2022-07-29T08:21:58;26.20;63.80
56753;DHT22;42627;42.646;23.642;2022-07-29T08:23:59;26.30;63.00
56753;DHT22;42627;42.646;23.642;2022-07-29T08:26:19;26.30;60.80
56753;DHT22;42627;42.646;23.642;2022-07-29T08:28:20;26.40;58.20
56753;DHT22;42627;42.646;23.642;2022-07-29T08:30:20;26.40;59.90
56753;DHT22;42627;42.646;23.642;2022-07-29T08:32:21;26.50;56.20
56753;DHT22;42627;42.646;23.642;2022-07-29T08:34:21;26.50;55.20
56753;DHT22;42627;42.646;23.642;2022-07-29T08:36:22;26.50;56.50
56753;DHT22;42627;42.646;23.642;2022-07-29T08:38:23;26.60;55.80
56753;DHT22;42627;42.646;23.642;2022-07-29T08:40:24;26.70;54.90
56753;DHT22;42627;42.646;23.642;2022-07-29T08:42:24;26.80;54.30
56753;DHT22;42627;42.646;23.642;2022-07-29T08:44:25;26.80;57.70
56753;DHT22;42627;42.646;23.642;2022-07-29T08:46:39;26.90;55.30
56753;DHT22;42627;42.646;23.642;2022-07-29T08:49:07;26.90;54.40
56753;DHT22;42627;42.646;23.642;2022-07-29T08:51:13;27.00;54.00
56753;DHT22;42627;42.646;23.642;2022-07-29T08:53:16;27.00;55.30
56753;DHT22;42627;42.646;23.642;2022-07-29T08:55:18;27.00;52.90
56753;DHT22;42627;42.646;23.642;2022-07-29T08:57:19;27.00;54.20
56753;DHT22;42627;42.646;23.642;2022-07-29T09:39:45;27.10;51.30
56753;DHT22;42627;42.646;23.642;2022-07-29T09:43:59;28.00;47.10
56753;DHT22;42627;42.646;23.642;2022-07-29T09:46:13;27.90;48.30
56753;DHT22;42627;42.646;23.642;2022-07-29T10:37:12;27.90;49.50
56753;DHT22;42627;42.646;23.642;2022-07-29T10:39:40;28.80;52.60
56753;DHT22;42627;42.646;23.642;2022-07-29T10:44:30;28.80;54.90
56753;DHT22;42627;42.646;23.642;2022-07-29T10:46:36;28.80;51.80
56753;DHT22;42627;42.646;23.642;2022-07-29T11:06:13;28.80;51.80
56753;DHT22;42627;42.646;23.642;2022-07-29T11:32:14;29.20;48.90
56753;DHT22;42627;42.646;23.642;2022-07-29T11:34:26;29.50;48.40
56753;DHT22;42627;42.646;23.642;2022-07-29T12:35:49;29.70;48.00
56753;DHT22;42627;42.646;23.642;2022-07-29T12:41:53;30.20;45.30
56753;DHT22;42627;42.646;23.642;2022-07-29T17:35:40;30.30;45.10
56753;DHT22;42627;42.646;23.642;2022-07-29T17:40:01;27.90;48.30
56753;DHT22;42627;42.646;23.642;2022-07-29T17:44:04;27.80;50.20
56753;DHT22;42627;42.646;23.642;2022-07-29T17:48:26;27.60;48.80
56753;DHT22;42627;42.646;23.642;2022-07-29T17:52:27;27.40;48.60
56753;DHT22;42627;42.646;23.642;2022-07-29T17:56:29;27.40;49.30
56753;DHT22;42627;42.646;23.642;2022-07-29T17:59:01;27.20;49.50
56753;DHT22;42627;42.646;23.642;2022-07-29T18:01:33;27.10;49.90
56753;DHT22;42627;42.646;23.642;2022-07-29T18:03:34;27.00;50.20
56753;DHT22;42627;42.646;23.642;2022-07-29T18:05:36;27.00;49.20
56753;DHT22;42627;42.646;23.642;2022-07-29T18:07:37;27.00;49.70
56753;DHT22;42627;42.646;23.642;2022-07-29T18:09:38;26.90;49.90
56753;DHT22;42627;42.646;23.642;2022-07-29T18:13:41;26.90;50.40
56753;DHT22;42627;42.646;23.642;2022-07-29T18:21:47;26.80;50.80
56753;DHT22;42627;42.646;23.642;2022-07-29T18:32:19;26.70;51.70
56753;DHT22;42627;42.646;23.642;2022-07-29T18:34:32;26.60;54.50
56753;DHT22;42627;42.646;23.642;2022-07-29T18:36:42;26.50;54.60
56753;DHT22;42627;42.646;23.642;2022-07-29T18:38:42;26.40;54.40
56753;DHT22;42627;42.646;23.642;2022-07-29T18:40:43;26.20;55.50
56753;DHT22;42627;42.646;23.642;2022-07-29T18:42:44;26.20;54.60
56753;DHT22;42627;42.646;23.642;2022-07-29T18:44:45;26.20;55.10
56753;DHT22;42627;42.646;23.642;2022-07-29T18:46:46;26.10;56.10
56753;DHT22;42627;42.646;23.642;2022-07-29T18:48:46;26.00;55.80
56753;DHT22;42627;42.646;23.642;2022-07-29T18:51:02;26.00;56.20
56753;DHT22;42627;42.646;23.642;2022-07-29T18:53:03;25.90;55.40
56753;DHT22;42627;42.646;23.642;2022-07-29T18:55:04;25.90;55.70
56753;DHT22;42627;42.646;23.642;2022-07-29T18:57:05;25.90;56.10
56753;DHT22;42627;42.646;23.642;2022-07-29T18:59:05;25.90;55.50
56753;DHT22;42627;42.646;23.642;2022-07-29T19:01:21;25.90;55.40
56753;DHT22;42627;42.646;23.642;2022-07-29T19:03:22;25.80;55.60
56753;DHT22;42627;42.646;23.642;2022-07-29T19:05:41;25.70;55.60
56753;DHT22;42627;42.646;23.642;2022-07-29T19:07:42;25.70;56.00
56753;DHT22;42627;42.646;23.642;2022-07-29T19:09:45;25.60;56.90
56753;DHT22;42627;42.646;23.642;2022-07-29T19:11:46;25.40;57.00
56753;DHT22;42627;42.646;23.642;2022-07-29T19:13:46;25.40;57.10
56753;DHT22;42627;42.646;23.642;2022-07-29T19:15:47;25.40;57.40
56753;DHT22;42627;42.646;23.642;2022-07-29T19:17:48;25.40;57.30
56753;DHT22;42627;42.646;23.642;2022-07-29T19:19:49;25.30;58.70
56753;DHT22;42627;42.646;23.642;2022-07-29T19:22:01;25.20;57.80
56753;DHT22;42627;42.646;23.642;2022-07-29T19:24:02;25.20;58.20
56753;DHT22;42627;42.646;23.642;2022-07-29T19:26:04;25.20;57.90
56753;DHT22;42627;42.646;23.642;2022-07-29T19:28:05;25.20;57.80
56753;DHT22;42627;42.646;23.642;2022-07-29T19:30:07;25.10;57.90
56753;DHT22;42627;42.646;23.642;2022-07-29T19:32:33;25.00;58.40
56753;DHT22;42627;42.646;23.642;2022-07-29T19:34:53;25.00;58.80
56753;DHT22;42627;42.646;23.642;2022-07-29T19:37:12;25.00;58.40
56753;DHT22;42627;42.646;23.642;2022-07-29T19:39:12;24.90;59.30
56753;DHT22;42627;42.646;23.642;2022-07-29T19:41:16;24.90;58.70
56753;DHT22;42627;42.646;23.642;2022-07-29T19:43:17;24.90;59.90
56753;DHT22;42627;42.646;23.642;2022-07-29T19:45:21;24.90;61.40
56753;DHT22;42627;42.646;23.642;2022-07-29T19:47:22;24.90;61.00
56753;DHT22;42627;42.646;23.642;2022-07-29T19:49:23;24.80;59.80
56753;DHT22;42627;42.646;23.642;2022-07-29T19:53:34;24.60;59.70
56753;DHT22;42627;42.646;23.642;2022-07-29T19:55:35;24.50;60.10
56753;DHT22;42627;42.646;23.642;2022-07-29T19:57:35;24.40;60.10
56753;DHT22;42627;42.646;23.642;2022-07-29T19:59:36;24.40;60.30
56753;DHT22;42627;42.646;23.642;2022-07-29T20:01:37;24.40;60.90
56753;DHT22;42627;42.646;23.642;2022-07-29T20:03:38;24.30;60.10
56753;DHT22;42627;42.646;23.642;2022-07-29T20:05:50;24.20;60.60
56753;DHT22;42627;42.646;23.642;2022-07-29T20:08:07;24.10;61.00
56753;DHT22;42627;42.646;23.642;2022-07-29T20:10:26;24.10;60.80
56753;DHT22;42627;42.646;23.642;2022-07-29T20:12:27;24.10;61.10
56753;DHT22;42627;42.646;23.642;2022-07-29T20:14:28;24.00;61.40
56753;DHT22;42627;42.646;23.642;2022-07-29T20:16:28;23.90;61.40
56753;DHT22;42627;42.646;23.642;2022-07-29T20:18:29;23.90;60.90
56753;DHT22;42627;42.646;23.642;2022-07-29T20:20:41;23.90;61.50
56753;DHT22;42627;42.646;23.642;2022-07-29T20:22:42;23.90;61.50
56753;DHT22;42627;42.646;23.642;2022-07-29T20:24:44;24.00;61.40
56753;DHT22;42627;42.646;23.642;2022-07-29T20:26:45;24.00;61.40
56753;DHT22;42627;42.646;23.642;2022-07-29T20:28:46;23.80;61.60
56753;DHT22;42627;42.646;23.642;2022-07-29T20:30:47;23.80;62.00
56753;DHT22;42627;42.646;23.642;2022-07-29T20:32:48;23.70;63.20
56753;DHT22;42627;42.646;23.642;2022-07-29T20:34:49;23.70;62.20
56753;DHT22;42627;42.646;23.642;2022-07-29T20:36:49;23.70;62.20
56753;DHT22;42627;42.646;23.642;2022-07-29T20:38:50;23.70;62.80
56753;DHT22;42627;42.646;23.642;2022-07-29T20:40:51;23.70;62.10
56753;DHT22;42627;42.646;23.642;2022-07-29T20:42:54;23.70;61.60
56753;DHT22;42627;42.646;23.642;2022-07-29T20:44:55;23.70;61.70
56753;DHT22;42627;42.646;23.642;2022-07-29T20:47:28;23.70;61.70
56753;DHT22;42627;42.646;23.642;2022-07-29T20:49:56;23.60;62.00
56753;DHT22;42627;42.646;23.642;2022-07-29T20:52:03;23.60;62.40
56753;DHT22;42627;42.646;23.642;2022-07-29T20:54:03;23.60;62.70
56753;DHT22;42627;42.646;23.642;2022-07-29T20:56:05;23.60;62.90
56753;DHT22;42627;42.646;23.642;2022-07-29T20:58:06;23.50;63.00
56753;DHT22;42627;42.646;23.642;2022-07-29T21:00:07;23.50;62.90
56753;DHT22;42627;42.646;23.642;2022-07-29T21:02:08;23.40;63.20
56753;DHT22;42627;42.646;23.642;2022-07-29T21:04:09;23.40;63.20
56753;DHT22;42627;42.646;23.642;2022-07-29T21:06:22;23.30;63.50
56753;DHT22;42627;42.646;23.642;2022-07-29T21:08:22;23.30;63.10
56753;DHT22;42627;42.646;23.642;2022-07-29T21:10:23;23.40;62.90
56753;DHT22;42627;42.646;23.642;2022-07-29T21:12:24;23.40;63.00
56753;DHT22;42627;42.646;23.642;2022-07-29T21:14:24;23.40;62.70
56753;DHT22;42627;42.646;23.642;2022-07-29T21:19:52;23.50;62.80
56753;DHT22;42627;42.646;23.642;2022-07-29T21:21:54;23.60;62.40
56753;DHT22;42627;42.646;23.642;2022-07-29T21:23:55;23.50;62.20
56753;DHT22;42627;42.646;23.642;2022-07-29T21:25:55;23.50;62.60
56753;DHT22;42627;42.646;23.642;2022-07-29T21:27:56;23.50;62.70
56753;DHT22;42627;42.646;23.642;2022-07-29T21:30:15;23.50;62.90
56753;DHT22;42627;42.646;23.642;2022-07-29T21:32:16;23.50;63.00
56753;DHT22;42627;42.646;23.642;2022-07-29T21:34:17;23.50;62.40
56753;DHT22;42627;42.646;23.642;2022-07-29T21:36:17;23.50;61.60
56753;DHT22;42627;42.646;23.642;2022-07-29T21:38:18;23.50;61.50
56753;DHT22;42627;42.646;23.642;2022-07-29T21:40:19;23.50;61.70
56753;DHT22;42627;42.646;23.642;2022-07-29T21:42:20;23.50;61.70
56753;DHT22;42627;42.646;23.642;2022-07-29T21:44:20;23.50;62.10
56753;DHT22;42627;42.646;23.642;2022-07-29T21:46:39;23.50;62.10
56753;DHT22;42627;42.646;23.642;2022-07-29T21:48:52;23.50;62.00
56753;DHT22;42627;42.646;23.642;2022-07-29T21:50:58;23.50;61.70
56753;DHT22;42627;42.646;23.642;2022-07-29T21:52:59;23.60;60.90
56753;DHT22;42627;42.646;23.642;2022-07-29T21:54:59;23.70;60.30
56753;DHT22;42627;42.646;23.642;2022-07-29T21:57:00;23.70;60.10
56753;DHT22;42627;42.646;23.642;2022-07-29T21:59:01;23.70;59.80
56753;DHT22;42627;42.646;23.642;2022-07-29T22:01:02;23.70;59.60
56753;DHT22;42627;42.646;23.642;2022-07-29T22:03:04;23.70;59.50
56753;DHT22;42627;42.646;23.642;2022-07-29T22:05:05;23.70;59.10
56753;DHT22;42627;42.646;23.642;2022-07-29T22:07:05;23.70;59.00
56753;DHT22;42627;42.646;23.642;2022-07-29T22:09:06;23.70;59.00
56753;DHT22;42627;42.646;23.642;2022-07-29T22:11:07;23.70;59.10
56753;DHT22;42627;42.646;23.642;2022-07-29T22:13:07;23.70;58.90
56753;DHT22;42627;42.646;23.642;2022-07-29T22:15:09;23.60;58.90
56753;DHT22;42627;42.646;23.642;2022-07-29T22:17:09;23.50;58.80